Aviation Digital Data Service (ADDS)

Output produced by METARs form (2101 UTC 21 September 2021)
found at http://aviationweather.gov/metar/data/
 
METAR text: EDDK 212050Z VRB02KT CAVOK 09/08 Q1031 NOSIG
Conditions at: EDDK (KOELN/BONN , DE) observed 2050 UTC 21 September 2021
Temperature: 9.0°C (48°F)
Dewpoint: 8.0°C (46°F) [RH = 93%]
Pressure (altimeter): 30.44 inches Hg (1031.0 mb)
Winds: variable direction winds at 2 MPH (2 knots; 1.0 m/s)
Visibility: 6 or more miles (10+ km)
Ceiling: ceiling and visibility are OK
Clouds: unknown
Weather: no significant weather observed at this time

METAR text: EDDK 212020Z VRB02KT CAVOK 09/08 Q1030 NOSIG
Conditions at: EDDK (KOELN/BONN , DE) observed 2020 UTC 21 September 2021
Temperature: 9.0°C (48°F)
Dewpoint: 8.0°C (46°F) [RH = 93%]
Pressure (altimeter): 30.41 inches Hg (1030.0 mb)
Winds: variable direction winds at 2 MPH (2 knots; 1.0 m/s)
Visibility: 6 or more miles (10+ km)
Ceiling: ceiling and visibility are OK
Clouds: unknown
Weather: no significant weather observed at this time

Forecast for: EDDK (KOELN/BONN , DE)
Text: TAF EDDK 211700Z 2118/2224 VRB03KT CAVOK
Forecast period: 1800 UTC 21 September 2021 to 0000 UTC 23 September 2021
Forecast type: FROM: standard forecast or significant change
Winds: variable direction winds at 3 MPH (3 knots; 1.5 m/s)
Visibility: 6 or more miles (10+ km)
Ceiling: unknown
Clouds: missing
Weather: NSW  (no significant weather)